sensor_id;sensor_type;location;lat;lon;timestamp;temperature;humidity
9371;DHT22;4725;48.384;8.984;2022-09-28T00:01:43;7.80;99.90
9371;DHT22;4725;48.384;8.984;2022-09-28T00:04:11;7.80;99.90
9371;DHT22;4725;48.384;8.984;2022-09-28T00:06:38;7.80;99.90
9371;DHT22;4725;48.384;8.984;2022-09-28T00:09:05;7.80;99.90
9371;DHT22;4725;48.384;8.984;2022-09-28T00:11:32;7.80;99.90
9371;DHT22;4725;48.384;8.984;2022-09-28T00:14:01;7.90;99.90
9371;DHT22;4725;48.384;8.984;2022-09-28T00:16:30;7.90;99.90
9371;DHT22;4725;48.384;8.984;2022-09-28T00:18:57;7.90;99.90
9371;DHT22;4725;48.384;8.984;2022-09-28T00:21:26;7.90;99.90
9371;DHT22;4725;48.384;8.984;2022-09-28T00:23:54;7.90;99.90
9371;DHT22;4725;48.384;8.984;2022-09-28T00:26:44;7.90;99.90
9371;DHT22;4725;48.384;8.984;2022-09-28T00:29:21;7.90;99.90
9371;DHT22;4725;48.384;8.984;2022-09-28T00:31:50;7.90;99.90
9371;DHT22;4725;48.384;8.984;2022-09-28T00:34:18;7.90;99.90
9371;DHT22;4725;48.384;8.984;2022-09-28T00:36:46;7.90;99.90
9371;DHT22;4725;48.384;8.984;2022-09-28T00:39:13;7.90;99.90
9371;DHT22;4725;48.384;8.984;2022-09-28T00:41:41;7.90;99.90
9371;DHT22;4725;48.384;8.984;2022-09-28T00:44:34;7.90;99.90
9371;DHT22;4725;48.384;8.984;2022-09-28T00:47:10;7.90;99.90
9371;DHT22;4725;48.384;8.984;2022-09-28T00:49:42;7.90;99.90
9371;DHT22;4725;48.384;8.984;2022-09-28T00:52:13;7.90;99.90
9371;DHT22;4725;48.384;8.984;2022-09-28T00:54:42;7.90;99.90
9371;DHT22;4725;48.384;8.984;2022-09-28T00:57:11;7.90;99.90
9371;DHT22;4725;48.384;8.984;2022-09-28T00:59:41;7.90;99.90
9371;DHT22;4725;48.384;8.984;2022-09-28T01:02:09;7.90;99.90
9371;DHT22;4725;48.384;8.984;2022-09-28T01:04:37;7.90;99.90
9371;DHT22;4725;48.384;8.984;2022-09-28T01:07:05;7.90;99.90
9371;DHT22;4725;48.384;8.984;2022-09-28T01:09:35;7.90;99.90
9371;DHT22;4725;48.384;8.984;2022-09-28T01:12:04;7.90;99.90
9371;DHT22;4725;48.384;8.984;2022-09-28T01:14:31;7.90;99.90
9371;DHT22;4725;48.384;8.984;2022-09-28T01:17:05;7.90;99.90
9371;DHT22;4725;48.384;8.984;2022-09-28T01:20:10;8.00;99.90
9371;DHT22;4725;48.384;8.984;2022-09-28T01:25:51;8.00;99.90
9371;DHT22;4725;48.384;8.984;2022-09-28T01:28:23;8.00;99.90
9371;DHT22;4725;48.384;8.984;2022-09-28T01:31:00;8.00;99.90
9371;DHT22;4725;48.384;8.984;2022-09-28T01:33:33;8.00;99.90
9371;DHT22;4725;48.384;8.984;2022-09-28T01:36:06;8.00;99.90
9371;DHT22;4725;48.384;8.984;2022-09-28T01:38:38;8.10;99.90
9371;DHT22;4725;48.384;8.984;2022-09-28T01:41:08;8.10;99.90
9371;DHT22;4725;48.384;8.984;2022-09-28T01:43:39;8.10;99.90
9371;DHT22;4725;48.384;8.984;2022-09-28T01:46:13;8.10;99.90
9371;DHT22;4725;48.384;8.984;2022-09-28T01:48:44;8.10;99.90
9371;DHT22;4725;48.384;8.984;2022-09-28T01:51:16;8.10;99.90
9371;DHT22;4725;48.384;8.984;2022-09-28T01:53:47;8.10;99.90
9371;DHT22;4725;48.384;8.984;2022-09-28T01:56:19;8.10;99.90
9371;DHT22;4725;48.384;8.984;2022-09-28T01:58:50;8.10;99.90
9371;DHT22;4725;48.384;8.984;2022-09-28T02:01:21;8.10;99.90
9371;DHT22;4725;48.384;8.984;2022-09-28T02:03:54;8.10;99.90
9371;DHT22;4725;48.384;8.984;2022-09-28T02:06:26;8.10;99.90
9371;DHT22;4725;48.384;8.984;2022-09-28T02:09:01;8.10;99.90
9371;DHT22;4725;48.384;8.984;2022-09-28T02:11:29;8.10;99.90
9371;DHT22;4725;48.384;8.984;2022-09-28T02:14:02;8.10;99.90
9371;DHT22;4725;48.384;8.984;2022-09-28T02:16:34;8.10;99.90
9371;DHT22;4725;48.384;8.984;2022-09-28T02:19:02;8.10;99.90
9371;DHT22;4725;48.384;8.984;2022-09-28T02:21:32;8.10;99.90
9371;DHT22;4725;48.384;8.984;2022-09-28T02:24:08;8.10;99.90
9371;DHT22;4725;48.384;8.984;2022-09-28T02:26:39;8.10;99.90
9371;DHT22;4725;48.384;8.984;2022-09-28T02:29:09;8.10;99.90
9371;DHT22;4725;48.384;8.984;2022-09-28T02:31:36;8.10;99.90
9371;DHT22;4725;48.384;8.984;2022-09-28T02:34:03;8.10;99.90
9371;DHT22;4725;48.384;8.984;2022-09-28T02:36:30;8.10;99.90
9371;DHT22;4725;48.384;8.984;2022-09-28T02:38:58;8.00;99.90
9371;DHT22;4725;48.384;8.984;2022-09-28T02:41:33;8.10;99.90
9371;DHT22;4725;48.384;8.984;2022-09-28T02:44:07;8.10;99.90
9371;DHT22;4725;48.384;8.984;2022-09-28T02:46:46;8.10;99.90
9371;DHT22;4725;48.384;8.984;2022-09-28T02:49:22;8.10;99.90
9371;DHT22;4725;48.384;8.984;2022-09-28T02:52:11;8.00;99.90
9371;DHT22;4725;48.384;8.984;2022-09-28T02:57:46;8.00;99.90
9371;DHT22;4725;48.384;8.984;2022-09-28T03:03:11;8.00;99.90
9371;DHT22;4725;48.384;8.984;2022-09-28T03:05:43;8.00;99.90
9371;DHT22;4725;48.384;8.984;2022-09-28T03:08:16;8.00;99.90
9371;DHT22;4725;48.384;8.984;2022-09-28T03:10:48;8.10;99.90
9371;DHT22;4725;48.384;8.984;2022-09-28T03:13:17;8.10;99.90
9371;DHT22;4725;48.384;8.984;2022-09-28T03:15:44;8.10;99.90
9371;DHT22;4725;48.384;8.984;2022-09-28T03:18:12;8.10;99.90
9371;DHT22;4725;48.384;8.984;2022-09-28T03:20:39;8.10;99.90
9371;DHT22;4725;48.384;8.984;2022-09-28T03:23:06;8.10;99.90
9371;DHT22;4725;48.384;8.984;2022-09-28T03:25:33;8.10;99.90
9371;DHT22;4725;48.384;8.984;2022-09-28T03:28:00;8.10;99.90
9371;DHT22;4725;48.384;8.984;2022-09-28T03:30:27;8.10;99.90
9371;DHT22;4725;48.384;8.984;2022-09-28T03:32:57;8.10;99.90
9371;DHT22;4725;48.384;8.984;2022-09-28T03:35:26;8.20;99.90
9371;DHT22;4725;48.384;8.984;2022-09-28T03:37:54;8.20;99.90
9371;DHT22;4725;48.384;8.984;2022-09-28T03:40:21;8.20;99.90
9371;DHT22;4725;48.384;8.984;2022-09-28T03:42:48;8.20;99.90
9371;DHT22;4725;48.384;8.984;2022-09-28T03:45:15;8.20;99.90
9371;DHT22;4725;48.384;8.984;2022-09-28T03:47:44;8.20;99.90
9371;DHT22;4725;48.384;8.984;2022-09-28T03:50:11;8.20;99.90
9371;DHT22;4725;48.384;8.984;2022-09-28T03:52:40;8.20;99.90
9371;DHT22;4725;48.384;8.984;2022-09-28T03:55:07;8.20;99.90
9371;DHT22;4725;48.384;8.984;2022-09-28T03:57:35;8.20;99.90
9371;DHT22;4725;48.384;8.984;2022-09-28T04:00:03;8.20;99.90
9371;DHT22;4725;48.384;8.984;2022-09-28T04:02:30;8.20;99.90
9371;DHT22;4725;48.384;8.984;2022-09-28T04:04:57;8.20;99.90
9371;DHT22;4725;48.384;8.984;2022-09-28T04:07:24;8.20;99.90
9371;DHT22;4725;48.384;8.984;2022-09-28T04:09:52;8.30;99.90
9371;DHT22;4725;48.384;8.984;2022-09-28T04:12:19;8.30;99.90
9371;DHT22;4725;48.384;8.984;2022-09-28T04:14:46;8.30;99.90
9371;DHT22;4725;48.384;8.984;2022-09-28T04:17:13;8.30;99.90
9371;DHT22;4725;48.384;8.984;2022-09-28T04:19:40;8.30;99.90
9371;DHT22;4725;48.384;8.984;2022-09-28T04:22:07;8.20;99.90
9371;DHT22;4725;48.384;8.984;2022-09-28T04:24:34;8.20;99.90
9371;DHT22;4725;48.384;8.984;2022-09-28T04:27:03;8.20;99.90
9371;DHT22;4725;48.384;8.984;2022-09-28T04:29:44;8.20;99.90
9371;DHT22;4725;48.384;8.984;2022-09-28T04:32:10;8.20;99.90
9371;DHT22;4725;48.384;8.984;2022-09-28T04:34:37;8.20;99.90
9371;DHT22;4725;48.384;8.984;2022-09-28T04:37:04;8.20;99.90
9371;DHT22;4725;48.384;8.984;2022-09-28T04:39:31;8.20;99.90
9371;DHT22;4725;48.384;8.984;2022-09-28T04:41:58;8.10;99.90
9371;DHT22;4725;48.384;8.984;2022-09-28T04:44:27;8.10;99.90
9371;DHT22;4725;48.384;8.984;2022-09-28T04:46:54;8.10;99.90
9371;DHT22;4725;48.384;8.984;2022-09-28T04:49:21;8.20;99.90
9371;DHT22;4725;48.384;8.984;2022-09-28T04:51:49;8.10;99.90
9371;DHT22;4725;48.384;8.984;2022-09-28T04:54:16;8.10;99.90
9371;DHT22;4725;48.384;8.984;2022-09-28T04:56:43;8.20;99.90
9371;DHT22;4725;48.384;8.984;2022-09-28T04:59:09;8.20;99.90
9371;DHT22;4725;48.384;8.984;2022-09-28T05:01:38;8.20;99.90
9371;DHT22;4725;48.384;8.984;2022-09-28T05:04:05;8.20;99.90
9371;DHT22;4725;48.384;8.984;2022-09-28T05:06:32;8.20;99.90
9371;DHT22;4725;48.384;8.984;2022-09-28T05:08:59;8.20;99.90
9371;DHT22;4725;48.384;8.984;2022-09-28T05:11:26;8.20;99.90
9371;DHT22;4725;48.384;8.984;2022-09-28T05:13:53;8.20;99.90
9371;DHT22;4725;48.384;8.984;2022-09-28T05:16:20;8.20;99.90
9371;DHT22;4725;48.384;8.984;2022-09-28T05:18:48;8.30;99.90
9371;DHT22;4725;48.384;8.984;2022-09-28T05:21:15;8.30;99.90
9371;DHT22;4725;48.384;8.984;2022-09-28T05:23:45;8.30;99.90
9371;DHT22;4725;48.384;8.984;2022-09-28T05:26:12;8.30;99.90
9371;DHT22;4725;48.384;8.984;2022-09-28T05:28:39;8.30;99.90
9371;DHT22;4725;48.384;8.984;2022-09-28T05:31:06;8.40;99.90
9371;DHT22;4725;48.384;8.984;2022-09-28T05:33:33;8.40;99.90
9371;DHT22;4725;48.384;8.984;2022-09-28T05:36:02;8.30;99.90
9371;DHT22;4725;48.384;8.984;2022-09-28T05:38:29;8.40;99.90
9371;DHT22;4725;48.384;8.984;2022-09-28T05:40:56;8.40;99.90
9371;DHT22;4725;48.384;8.984;2022-09-28T05:43:23;8.30;99.90
9371;DHT22;4725;48.384;8.984;2022-09-28T05:45:50;8.40;99.90
9371;DHT22;4725;48.384;8.984;2022-09-28T05:48:17;8.40;99.90
9371;DHT22;4725;48.384;8.984;2022-09-28T05:50:48;8.40;99.90
9371;DHT22;4725;48.384;8.984;2022-09-28T05:53:17;8.40;99.90
9371;DHT22;4725;48.384;8.984;2022-09-28T05:55:44;8.40;99.90
9371;DHT22;4725;48.384;8.984;2022-09-28T05:58:10;8.40;99.90
9371;DHT22;4725;48.384;8.984;2022-09-28T06:00:38;8.30;99.90
9371;DHT22;4725;48.384;8.984;2022-09-28T06:03:07;8.30;99.90
9371;DHT22;4725;48.384;8.984;2022-09-28T06:05:34;8.30;99.90
9371;DHT22;4725;48.384;8.984;2022-09-28T06:08:03;8.30;99.90
9371;DHT22;4725;48.384;8.984;2022-09-28T06:10:32;8.30;99.90
9371;DHT22;4725;48.384;8.984;2022-09-28T06:12:59;8.30;99.90
9371;DHT22;4725;48.384;8.984;2022-09-28T06:15:28;8.20;99.90
9371;DHT22;4725;48.384;8.984;2022-09-28T06:17:56;8.20;99.90
9371;DHT22;4725;48.384;8.984;2022-09-28T06:20:24;8.20;99.90
9371;DHT22;4725;48.384;8.984;2022-09-28T06:22:51;8.20;99.90
9371;DHT22;4725;48.384;8.984;2022-09-28T06:25:19;8.20;99.90
9371;DHT22;4725;48.384;8.984;2022-09-28T06:27:59;8.20;99.90
9371;DHT22;4725;48.384;8.984;2022-09-28T06:30:28;8.10;99.90
9371;DHT22;4725;48.384;8.984;2022-09-28T06:32:56;8.20;99.90
9371;DHT22;4725;48.384;8.984;2022-09-28T06:35:26;8.20;99.90
9371;DHT22;4725;48.384;8.984;2022-09-28T06:37:55;8.20;99.90
9371;DHT22;4725;48.384;8.984;2022-09-28T06:40:22;8.20;99.90
9371;DHT22;4725;48.384;8.984;2022-09-28T06:42:58;8.20;99.90
9371;DHT22;4725;48.384;8.984;2022-09-28T06:45:26;8.20;99.90
9371;DHT22;4725;48.384;8.984;2022-09-28T06:47:54;8.20;99.90
9371;DHT22;4725;48.384;8.984;2022-09-28T06:50:23;8.30;99.90
9371;DHT22;4725;48.384;8.984;2022-09-28T06:52:51;8.30;99.90
9371;DHT22;4725;48.384;8.984;2022-09-28T06:55:19;8.40;99.90
9371;DHT22;4725;48.384;8.984;2022-09-28T06:57:46;8.40;99.90
9371;DHT22;4725;48.384;8.984;2022-09-28T07:00:15;8.50;99.90
9371;DHT22;4725;48.384;8.984;2022-09-28T07:02:42;8.50;99.90
9371;DHT22;4725;48.384;8.984;2022-09-28T07:05:11;8.50;99.90
9371;DHT22;4725;48.384;8.984;2022-09-28T07:07:39;8.50;99.90
9371;DHT22;4725;48.384;8.984;2022-09-28T07:10:09;8.60;99.90
9371;DHT22;4725;48.384;8.984;2022-09-28T07:12:37;8.70;99.90
9371;DHT22;4725;48.384;8.984;2022-09-28T07:15:05;8.70;99.90
9371;DHT22;4725;48.384;8.984;2022-09-28T07:17:34;8.70;99.90
9371;DHT22;4725;48.384;8.984;2022-09-28T07:20:01;8.70;99.90
9371;DHT22;4725;48.384;8.984;2022-09-28T07:22:29;8.80;99.90
9371;DHT22;4725;48.384;8.984;2022-09-28T07:24:56;8.90;99.90
9371;DHT22;4725;48.384;8.984;2022-09-28T07:27:23;8.90;99.90
9371;DHT22;4725;48.384;8.984;2022-09-28T07:29:50;9.00;99.90
9371;DHT22;4725;48.384;8.984;2022-09-28T07:32:18;9.00;99.90
9371;DHT22;4725;48.384;8.984;2022-09-28T07:34:46;9.00;99.90
9371;DHT22;4725;48.384;8.984;2022-09-28T07:37:13;9.20;99.90
9371;DHT22;4725;48.384;8.984;2022-09-28T07:39:43;9.20;99.90
9371;DHT22;4725;48.384;8.984;2022-09-28T07:44:56;9.30;99.90
9371;DHT22;4725;48.384;8.984;2022-09-28T07:47:24;9.30;99.90
9371;DHT22;4725;48.384;8.984;2022-09-28T07:49:54;9.30;99.90
9371;DHT22;4725;48.384;8.984;2022-09-28T07:52:22;9.40;99.90
9371;DHT22;4725;48.384;8.984;2022-09-28T07:54:50;9.30;99.90
9371;DHT22;4725;48.384;8.984;2022-09-28T07:57:19;9.20;99.90
9371;DHT22;4725;48.384;8.984;2022-09-28T07:59:46;9.20;99.90
9371;DHT22;4725;48.384;8.984;2022-09-28T08:02:14;9.10;99.90
9371;DHT22;4725;48.384;8.984;2022-09-28T08:04:42;9.10;99.90
9371;DHT22;4725;48.384;8.984;2022-09-28T08:07:11;9.00;99.90
9371;DHT22;4725;48.384;8.984;2022-09-28T08:09:38;9.00;99.90
9371;DHT22;4725;48.384;8.984;2022-09-28T08:12:05;8.90;99.90
9371;DHT22;4725;48.384;8.984;2022-09-28T08:14:32;8.90;99.90
9371;DHT22;4725;48.384;8.984;2022-09-28T08:16:59;8.90;99.90
9371;DHT22;4725;48.384;8.984;2022-09-28T08:19:26;8.80;99.90
9371;DHT22;4725;48.384;8.984;2022-09-28T08:22:18;8.80;99.90
9371;DHT22;4725;48.384;8.984;2022-09-28T08:24:44;8.80;99.90
9371;DHT22;4725;48.384;8.984;2022-09-28T08:27:12;8.80;99.90
9371;DHT22;4725;48.384;8.984;2022-09-28T08:29:39;8.80;99.90
9371;DHT22;4725;48.384;8.984;2022-09-28T08:32:08;8.80;99.90
9371;DHT22;4725;48.384;8.984;2022-09-28T08:34:35;8.80;99.90
9371;DHT22;4725;48.384;8.984;2022-09-28T08:37:02;8.80;99.90
9371;DHT22;4725;48.384;8.984;2022-09-28T08:39:31;8.80;99.90
9371;DHT22;4725;48.384;8.984;2022-09-28T08:42:07;8.80;99.90
9371;DHT22;4725;48.384;8.984;2022-09-28T08:44:43;8.80;99.90
9371;DHT22;4725;48.384;8.984;2022-09-28T08:47:16;8.70;99.90
9371;DHT22;4725;48.384;8.984;2022-09-28T08:50:00;8.60;99.90
9371;DHT22;4725;48.384;8.984;2022-09-28T08:52:32;8.60;99.90
9371;DHT22;4725;48.384;8.984;2022-09-28T08:55:07;8.60;99.90
9371;DHT22;4725;48.384;8.984;2022-09-28T08:57:40;8.60;99.90
9371;DHT22;4725;48.384;8.984;2022-09-28T09:00:16;8.60;99.90
9371;DHT22;4725;48.384;8.984;2022-09-28T09:02:45;8.70;99.90
9371;DHT22;4725;48.384;8.984;2022-09-28T09:05:15;8.70;99.90
9371;DHT22;4725;48.384;8.984;2022-09-28T09:08:17;8.60;99.90
9371;DHT22;4725;48.384;8.984;2022-09-28T09:10:51;8.70;99.90
9371;DHT22;4725;48.384;8.984;2022-09-28T09:13:34;8.70;99.90
9371;DHT22;4725;48.384;8.984;2022-09-28T09:16:10;8.80;99.90
9371;DHT22;4725;48.384;8.984;2022-09-28T09:18:42;8.80;99.90
9371;DHT22;4725;48.384;8.984;2022-09-28T09:21:14;8.80;99.90
9371;DHT22;4725;48.384;8.984;2022-09-28T09:23:52;8.80;99.90
9371;DHT22;4725;48.384;8.984;2022-09-28T09:26:29;8.80;99.90
9371;DHT22;4725;48.384;8.984;2022-09-28T09:29:28;8.80;99.90
9371;DHT22;4725;48.384;8.984;2022-09-28T09:32:08;8.80;99.90
9371;DHT22;4725;48.384;8.984;2022-09-28T09:34:51;8.90;99.90
9371;DHT22;4725;48.384;8.984;2022-09-28T09:37:34;8.90;99.90
9371;DHT22;4725;48.384;8.984;2022-09-28T09:40:20;9.00;99.90
9371;DHT22;4725;48.384;8.984;2022-09-28T09:43:04;9.10;99.90
9371;DHT22;4725;48.384;8.984;2022-09-28T09:45:44;9.10;99.90
9371;DHT22;4725;48.384;8.984;2022-09-28T09:48:19;9.20;99.90
9371;DHT22;4725;48.384;8.984;2022-09-28T09:50:52;9.20;99.90
9371;DHT22;4725;48.384;8.984;2022-09-28T09:53:25;9.20;99.90
9371;DHT22;4725;48.384;8.984;2022-09-28T09:56:00;9.10;99.90
9371;DHT22;4725;48.384;8.984;2022-09-28T09:58:35;9.10;99.90
9371;DHT22;4725;48.384;8.984;2022-09-28T10:01:07;9.20;99.90
9371;DHT22;4725;48.384;8.984;2022-09-28T10:03:38;9.20;99.90
9371;DHT22;4725;48.384;8.984;2022-09-28T10:06:08;9.20;99.90
9371;DHT22;4725;48.384;8.984;2022-09-28T10:08:40;9.10;99.90
9371;DHT22;4725;48.384;8.984;2022-09-28T10:11:11;9.40;99.90
9371;DHT22;4725;48.384;8.984;2022-09-28T10:13:41;9.40;99.90
9371;DHT22;4725;48.384;8.984;2022-09-28T10:16:09;9.60;99.90
9371;DHT22;4725;48.384;8.984;2022-09-28T10:18:36;9.60;99.90
9371;DHT22;4725;48.384;8.984;2022-09-28T10:21:04;9.90;99.90
9371;DHT22;4725;48.384;8.984;2022-09-28T10:23:33;9.90;99.90
9371;DHT22;4725;48.384;8.984;2022-09-28T10:26:05;10.10;99.90
9371;DHT22;4725;48.384;8.984;2022-09-28T10:28:38;10.20;99.90
9371;DHT22;4725;48.384;8.984;2022-09-28T10:31:36;10.20;99.90
9371;DHT22;4725;48.384;8.984;2022-09-28T10:34:04;10.40;99.90
9371;DHT22;4725;48.384;8.984;2022-09-28T10:36:32;10.60;99.90
9371;DHT22;4725;48.384;8.984;2022-09-28T10:39:03;10.40;99.90
9371;DHT22;4725;48.384;8.984;2022-09-28T10:41:31;10.30;99.90
9371;DHT22;4725;48.384;8.984;2022-09-28T10:44:01;10.20;99.90
9371;DHT22;4725;48.384;8.984;2022-09-28T10:46:33;10.30;99.90
9371;DHT22;4725;48.384;8.984;2022-09-28T10:49:05;10.40;99.90
9371;DHT22;4725;48.384;8.984;2022-09-28T10:51:41;10.10;99.90
9371;DHT22;4725;48.384;8.984;2022-09-28T10:54:15;10.30;99.90
9371;DHT22;4725;48.384;8.984;2022-09-28T10:56:42;10.50;99.90
9371;DHT22;4725;48.384;8.984;2022-09-28T10:59:35;10.60;99.90
9371;DHT22;4725;48.384;8.984;2022-09-28T11:02:18;11.00;99.90
9371;DHT22;4725;48.384;8.984;2022-09-28T11:04:52;11.00;99.90
9371;DHT22;4725;48.384;8.984;2022-09-28T11:07:21;11.00;99.90
9371;DHT22;4725;48.384;8.984;2022-09-28T11:09:51;10.90;99.90
9371;DHT22;4725;48.384;8.984;2022-09-28T11:12:21;11.00;99.90
9371;DHT22;4725;48.384;8.984;2022-09-28T11:14:54;10.60;99.90
9371;DHT22;4725;48.384;8.984;2022-09-28T11:17:27;10.50;99.90
9371;DHT22;4725;48.384;8.984;2022-09-28T11:19:57;10.30;99.90
9371;DHT22;4725;48.384;8.984;2022-09-28T11:22:27;10.40;99.90
9371;DHT22;4725;48.384;8.984;2022-09-28T11:25:19;10.40;99.90
9371;DHT22;4725;48.384;8.984;2022-09-28T11:27:58;10.40;99.90
9371;DHT22;4725;48.384;8.984;2022-09-28T11:30:28;10.50;99.90
9371;DHT22;4725;48.384;8.984;2022-09-28T11:33:02;10.50;99.90
9371;DHT22;4725;48.384;8.984;2022-09-28T11:35:41;10.40;99.90
9371;DHT22;4725;48.384;8.984;2022-09-28T11:38:30;10.30;99.90
9371;DHT22;4725;48.384;8.984;2022-09-28T11:41:22;10.30;99.90
9371;DHT22;4725;48.384;8.984;2022-09-28T11:44:02;10.20;99.90
9371;DHT22;4725;48.384;8.984;2022-09-28T11:46:39;10.50;99.90
9371;DHT22;4725;48.384;8.984;2022-09-28T11:49:22;10.50;99.90
9371;DHT22;4725;48.384;8.984;2022-09-28T11:51:57;10.50;99.90
9371;DHT22;4725;48.384;8.984;2022-09-28T11:54:30;10.80;99.90
9371;DHT22;4725;48.384;8.984;2022-09-28T11:57:00;10.80;99.90
9371;DHT22;4725;48.384;8.984;2022-09-28T11:59:30;10.90;99.90
9371;DHT22;4725;48.384;8.984;2022-09-28T12:02:08;10.70;99.90
9371;DHT22;4725;48.384;8.984;2022-09-28T12:04:39;10.60;99.90
9371;DHT22;4725;48.384;8.984;2022-09-28T12:07:14;10.60;99.90
9371;DHT22;4725;48.384;8.984;2022-09-28T12:09:45;10.70;99.90
9371;DHT22;4725;48.384;8.984;2022-09-28T12:12:19;10.40;99.90
9371;DHT22;4725;48.384;8.984;2022-09-28T12:14:47;10.40;99.90
9371;DHT22;4725;48.384;8.984;2022-09-28T12:17:20;10.50;99.90
9371;DHT22;4725;48.384;8.984;2022-09-28T12:19:53;10.50;99.90
9371;DHT22;4725;48.384;8.984;2022-09-28T12:22:28;10.40;99.90
9371;DHT22;4725;48.384;8.984;2022-09-28T12:24:58;10.40;99.90
9371;DHT22;4725;48.384;8.984;2022-09-28T12:27:30;10.40;99.90
9371;DHT22;4725;48.384;8.984;2022-09-28T12:30:03;10.50;99.90
9371;DHT22;4725;48.384;8.984;2022-09-28T12:32:34;10.40;99.90
9371;DHT22;4725;48.384;8.984;2022-09-28T12:35:10;10.30;99.90
9371;DHT22;4725;48.384;8.984;2022-09-28T12:37:53;10.40;99.90
9371;DHT22;4725;48.384;8.984;2022-09-28T12:40:34;10.40;99.90
9371;DHT22;4725;48.384;8.984;2022-09-28T12:46:18;10.50;99.90
9371;DHT22;4725;48.384;8.984;2022-09-28T12:49:15;10.50;99.90
9371;DHT22;4725;48.384;8.984;2022-09-28T12:51:49;10.50;99.90
9371;DHT22;4725;48.384;8.984;2022-09-28T12:54:41;10.50;99.90
9371;DHT22;4725;48.384;8.984;2022-09-28T12:57:31;10.50;99.90
9371;DHT22;4725;48.384;8.984;2022-09-28T13:00:03;10.50;99.90
9371;DHT22;4725;48.384;8.984;2022-09-28T13:03:08;10.50;99.90
9371;DHT22;4725;48.384;8.984;2022-09-28T13:09:05;10.20;99.90
9371;DHT22;4725;48.384;8.984;2022-09-28T13:11:41;10.10;99.90
9371;DHT22;4725;48.384;8.984;2022-09-28T13:14:26;10.00;99.90
9371;DHT22;4725;48.384;8.984;2022-09-28T13:17:03;10.10;99.90
9371;DHT22;4725;48.384;8.984;2022-09-28T13:19:41;10.10;99.90
9371;DHT22;4725;48.384;8.984;2022-09-28T13:22:21;10.10;99.90
9371;DHT22;4725;48.384;8.984;2022-09-28T13:24:54;10.10;99.90
9371;DHT22;4725;48.384;8.984;2022-09-28T13:27:27;10.10;99.90
9371;DHT22;4725;48.384;8.984;2022-09-28T13:29:58;10.10;99.90
9371;DHT22;4725;48.384;8.984;2022-09-28T13:32:26;10.30;99.90
9371;DHT22;4725;48.384;8.984;2022-09-28T13:34:56;10.40;99.90
9371;DHT22;4725;48.384;8.984;2022-09-28T13:37:27;10.40;99.90
9371;DHT22;4725;48.384;8.984;2022-09-28T13:39:54;10.50;99.90
9371;DHT22;4725;48.384;8.984;2022-09-28T13:45:52;10.40;99.90
9371;DHT22;4725;48.384;8.984;2022-09-28T13:48:23;10.50;99.90
9371;DHT22;4725;48.384;8.984;2022-09-28T13:51:13;10.50;99.90
9371;DHT22;4725;48.384;8.984;2022-09-28T13:54:02;10.50;99.90
9371;DHT22;4725;48.384;8.984;2022-09-28T13:56:43;10.60;99.90
9371;DHT22;4725;48.384;8.984;2022-09-28T13:59:19;10.60;99.90
9371;DHT22;4725;48.384;8.984;2022-09-28T14:01:53;10.50;99.90
9371;DHT22;4725;48.384;8.984;2022-09-28T14:04:49;10.40;99.90
9371;DHT22;4725;48.384;8.984;2022-09-28T14:07:20;10.40;99.90
9371;DHT22;4725;48.384;8.984;2022-09-28T14:09:48;10.40;99.90
9371;DHT22;4725;48.384;8.984;2022-09-28T14:12:45;10.40;99.90
9371;DHT22;4725;48.384;8.984;2022-09-28T14:18:25;10.40;99.90
9371;DHT22;4725;48.384;8.984;2022-09-28T14:21:04;10.40;99.90
9371;DHT22;4725;48.384;8.984;2022-09-28T14:23:50;10.50;99.90
9371;DHT22;4725;48.384;8.984;2022-09-28T14:29:24;10.50;99.90
9371;DHT22;4725;48.384;8.984;2022-09-28T14:31:55;10.50;99.90
9371;DHT22;4725;48.384;8.984;2022-09-28T14:34:34;10.50;99.90
9371;DHT22;4725;48.384;8.984;2022-09-28T14:37:03;10.40;99.90
9371;DHT22;4725;48.384;8.984;2022-09-28T14:39:50;10.30;99.90
9371;DHT22;4725;48.384;8.984;2022-09-28T14:42:34;10.30;99.90
9371;DHT22;4725;48.384;8.984;2022-09-28T14:45:34;10.20;99.90
9371;DHT22;4725;48.384;8.984;2022-09-28T14:48:11;10.00;99.90
9371;DHT22;4725;48.384;8.984;2022-09-28T14:50:39;9.80;99.90
9371;DHT22;4725;48.384;8.984;2022-09-28T14:53:10;9.70;99.90
9371;DHT22;4725;48.384;8.984;2022-09-28T14:55:45;9.70;99.90
9371;DHT22;4725;48.384;8.984;2022-09-28T14:58:18;9.60;99.90
9371;DHT22;4725;48.384;8.984;2022-09-28T15:00:54;9.60;99.90
9371;DHT22;4725;48.384;8.984;2022-09-28T15:03:24;9.60;99.90
9371;DHT22;4725;48.384;8.984;2022-09-28T15:05:54;9.80;99.90
9371;DHT22;4725;48.384;8.984;2022-09-28T15:08:21;9.90;99.90
9371;DHT22;4725;48.384;8.984;2022-09-28T15:10:50;10.10;99.90
9371;DHT22;4725;48.384;8.984;2022-09-28T15:13:23;10.20;99.90
9371;DHT22;4725;48.384;8.984;2022-09-28T15:15:53;10.30;99.90
9371;DHT22;4725;48.384;8.984;2022-09-28T15:18:47;10.40;99.90
9371;DHT22;4725;48.384;8.984;2022-09-28T15:21:17;10.30;99.90
9371;DHT22;4725;48.384;8.984;2022-09-28T15:23:45;10.30;99.90
9371;DHT22;4725;48.384;8.984;2022-09-28T15:26:25;10.10;99.90
9371;DHT22;4725;48.384;8.984;2022-09-28T15:28:54;10.20;99.90
9371;DHT22;4725;48.384;8.984;2022-09-28T15:31:23;10.10;99.90
9371;DHT22;4725;48.384;8.984;2022-09-28T15:33:51;10.10;99.90
9371;DHT22;4725;48.384;8.984;2022-09-28T15:36:38;10.10;99.90
9371;DHT22;4725;48.384;8.984;2022-09-28T15:39:11;9.80;99.90
9371;DHT22;4725;48.384;8.984;2022-09-28T15:41:43;9.70;99.90
9371;DHT22;4725;48.384;8.984;2022-09-28T15:44:24;9.70;99.90
9371;DHT22;4725;48.384;8.984;2022-09-28T15:47:07;9.80;99.90
9371;DHT22;4725;48.384;8.984;2022-09-28T15:49:38;9.70;99.90
9371;DHT22;4725;48.384;8.984;2022-09-28T15:52:25;9.50;99.90
9371;DHT22;4725;48.384;8.984;2022-09-28T15:54:53;9.40;99.90
9371;DHT22;4725;48.384;8.984;2022-09-28T15:57:36;9.30;99.90
9371;DHT22;4725;48.384;8.984;2022-09-28T16:00:15;9.30;99.90
9371;DHT22;4725;48.384;8.984;2022-09-28T16:03:02;9.30;99.90
9371;DHT22;4725;48.384;8.984;2022-09-28T16:05:32;9.30;99.90
9371;DHT22;4725;48.384;8.984;2022-09-28T16:08:03;9.30;99.90
9371;DHT22;4725;48.384;8.984;2022-09-28T16:10:32;9.30;99.90
9371;DHT22;4725;48.384;8.984;2022-09-28T16:13:22;9.20;99.90
9371;DHT22;4725;48.384;8.984;2022-09-28T16:15:55;9.30;99.90
9371;DHT22;4725;48.384;8.984;2022-09-28T16:18:25;9.20;99.90
9371;DHT22;4725;48.384;8.984;2022-09-28T16:23:23;9.10;99.90
9371;DHT22;4725;48.384;8.984;2022-09-28T16:25:56;9.00;99.90
9371;DHT22;4725;48.384;8.984;2022-09-28T16:28:48;9.00;99.90
9371;DHT22;4725;48.384;8.984;2022-09-28T16:31:25;9.00;99.90
9371;DHT22;4725;48.384;8.984;2022-09-28T16:33:55;9.00;99.90
9371;DHT22;4725;48.384;8.984;2022-09-28T16:36:26;8.90;99.90
9371;DHT22;4725;48.384;8.984;2022-09-28T16:38:55;8.90;99.90
9371;DHT22;4725;48.384;8.984;2022-09-28T16:41:25;8.80;99.90
9371;DHT22;4725;48.384;8.984;2022-09-28T16:43:57;8.80;99.90
9371;DHT22;4725;48.384;8.984;2022-09-28T16:46:30;8.80;99.90
9371;DHT22;4725;48.384;8.984;2022-09-28T16:48:59;8.80;99.90
9371;DHT22;4725;48.384;8.984;2022-09-28T16:51:28;8.70;99.90
9371;DHT22;4725;48.384;8.984;2022-09-28T16:53:58;8.60;99.90
9371;DHT22;4725;48.384;8.984;2022-09-28T16:56:44;8.60;99.90
9371;DHT22;4725;48.384;8.984;2022-09-28T16:59:12;8.60;99.90
9371;DHT22;4725;48.384;8.984;2022-09-28T17:01:40;8.60;99.90
9371;DHT22;4725;48.384;8.984;2022-09-28T17:04:08;8.60;99.90
9371;DHT22;4725;48.384;8.984;2022-09-28T17:06:35;8.60;99.90
9371;DHT22;4725;48.384;8.984;2022-09-28T17:09:03;8.50;99.90
9371;DHT22;4725;48.384;8.984;2022-09-28T17:11:32;8.50;99.90
9371;DHT22;4725;48.384;8.984;2022-09-28T17:13:59;8.40;99.90
9371;DHT22;4725;48.384;8.984;2022-09-28T17:16:31;8.40;99.90
9371;DHT22;4725;48.384;8.984;2022-09-28T17:18:58;8.40;99.90